createdAt,value
2022-08-03T00:19:49.373Z,3.2
2022-08-03T00:50:07.271Z,2.6
2022-08-03T01:20:24.898Z,2.8
2022-08-03T01:50:41.219Z,3.1
2022-08-03T02:20:58.578Z,3.4
2022-08-03T02:51:15.215Z,3.4
2022-08-03T03:21:32.888Z,3.8
2022-08-03T03:51:49.345Z,3.1
2022-08-03T04:22:08.681Z,3.4
2022-08-03T04:52:32.162Z,3.9
2022-08-03T05:22:51.807Z,3.2
2022-08-03T05:53:13.360Z,2.5
2022-08-03T06:23:52.653Z,2.4
2022-08-03T06:54:04.574Z,3.4
2022-08-03T07:24:31.221Z,4.2
2022-08-03T07:54:54.375Z,3.4
2022-08-03T08:25:20.044Z,3.2
2022-08-03T08:55:59.817Z,2.6
2022-08-03T09:26:10.487Z,2.7
2022-08-03T09:56:36.958Z,2.4
2022-08-03T10:26:59.010Z,2.5
2022-08-03T10:57:19.878Z,1.9
2022-08-03T11:27:37.128Z,2.3
2022-08-03T12:28:37.021Z,1.8
2022-08-03T12:58:28.414Z,2.1
2022-08-03T13:28:44.149Z,1.9
2022-08-03T13:58:58.456Z,1.9
2022-08-03T14:29:12.810Z,2.2
2022-08-03T14:59:19.786Z,1.9
2022-08-03T15:30:07.595Z,2.6
2022-08-03T15:59:53.631Z,2
2022-08-03T16:30:11.172Z,2.1
2022-08-03T17:00:33.701Z,2.9
2022-08-03T17:30:52.119Z,2.2
2022-08-03T18:01:59.163Z,2.3
2022-08-03T18:31:33.254Z,2.5
2022-08-03T19:02:00.419Z,2.2
2022-08-03T19:32:14.503Z,3
2022-08-03T20:02:34.368Z,4.5
2022-08-03T20:32:50.922Z,6.2
2022-08-03T21:03:08.900Z,4.2
2022-08-03T21:33:25.961Z,5.3
2022-08-03T22:03:53.017Z,6.5
2022-08-03T22:34:04.430Z,3.4
2022-08-03T23:04:23.136Z,3.3
2022-08-03T23:34:40.807Z,4.2
